Time;durP1;ratioP1;P1;durP2;ratioP2;P2;SDS_P1;SDS_P2;PMS_P1;PMS_P2;Temp;Humidity;BMP_temperature;BMP_pressure;BME280_temperature;BME280_humidity;BME280_pressure;Samples;Min_cycle;Max_cycle;Signal;HPM_P1;HPM_P2
2022/10/20 00:00:12;;;;;;;8.60;4.18;;;12.10;72.30;;;;;;5006779;28;20033;-65
2022/10/20 00:02:38;;;;;;;8.98;4.38;;;12.10;72.30;;;;;;5027915;28;20018;-65
2022/10/20 00:05:04;;;;;;;9.35;4.43;;;12.10;72.30;;;;;;5021530;28;20022;-65
2022/10/20 00:07:29;;;;;;;9.77;4.35;;;12.10;72.40;;;;;;5018726;28;20018;-65
2022/10/20 00:09:55;;;;;;;6.43;3.78;;;12.10;72.50;;;;;;5022569;28;20030;-65
2022/10/20 00:12:20;;;;;;;8.00;4.38;;;12.10;72.50;;;;;;5024790;28;20029;-65
2022/10/20 00:14:46;;;;;;;9.80;4.32;;;12.00;72.50;;;;;;5017329;28;20075;-65
2022/10/20 00:17:12;;;;;;;9.80;4.53;;;12.00;72.60;;;;;;5036396;28;20053;-65
2022/10/20 00:19:37;;;;;;;8.98;4.43;;;12.00;72.60;;;;;;5021663;28;20045;-65
2022/10/20 00:22:03;;;;;;;7.82;4.30;;;12.00;72.70;;;;;;5033553;28;20033;-65
2022/10/20 00:24:29;;;;;;;7.70;4.53;;;12.00;72.70;;;;;;5027318;28;20029;-66
2022/10/20 00:26:54;;;;;;;7.13;4.03;;;12.00;72.70;;;;;;5039367;28;20018;-65
2022/10/20 00:29:20;;;;;;;9.70;4.90;;;12.00;72.70;;;;;;5020970;28;20462;-65
2022/10/20 00:31:46;;;;;;;7.35;4.40;;;12.00;72.80;;;;;;5030139;28;20068;-65
2022/10/20 00:34:11;;;;;;;7.20;4.40;;;12.00;72.80;;;;;;5018769;28;20029;-65
2022/10/20 00:36:38;;;;;;;8.38;4.32;;;11.90;72.70;;;;;;5017745;28;20029;-65
2022/10/20 00:39:05;;;;;;;10.68;3.97;;;12.00;72.80;;;;;;5032167;28;20357;-65
2022/10/20 00:41:32;;;;;;;7.85;4.68;;;11.90;72.80;;;;;;5041664;28;20068;-65
2022/10/20 00:44:00;;;;;;;9.98;4.70;;;11.90;72.90;;;;;;5030708;28;20032;-65
2022/10/20 00:46:35;;;;;;;7.90;4.18;;;11.90;72.90;;;;;;5019500;28;20110;-66
2022/10/20 00:49:16;;;;;;;9.13;4.63;;;11.90;72.90;;;;;;5028413;28;20354;-65
2022/10/20 00:51:43;;;;;;;9.68;4.95;;;11.90;72.90;;;;;;5029536;28;20033;-65
2022/10/20 00:54:13;;;;;;;8.52;4.72;;;11.90;73.00;;;;;;5034566;28;20389;-65
2022/10/20 00:56:42;;;;;;;9.27;4.63;;;11.80;73.00;;;;;;5017210;28;20044;-65
2022/10/20 00:59:09;;;;;;;9.63;4.53;;;11.80;73.10;;;;;;5032579;28;20109;-65
2022/10/20 01:01:37;;;;;;;9.52;4.28;;;11.80;73.20;;;;;;5019237;28;20342;-65
2022/10/20 01:04:03;;;;;;;8.00;4.47;;;11.80;73.20;;;;;;5028261;28;20079;-65
2022/10/20 01:06:29;;;;;;;9.02;4.43;;;11.80;73.30;;;;;;5027312;28;20369;-65
2022/10/20 01:08:56;;;;;;;9.00;4.47;;;11.80;73.30;;;;;;5031933;28;20033;-65
2022/10/20 01:11:43;;;;;;;8.65;4.47;;;11.80;73.30;;;;;;5027894;28;20446;-65
2022/10/20 01:14:15;;;;;;;8.68;4.57;;;11.80;73.30;;;;;;5030582;28;20038;-65
2022/10/20 01:17:18;;;;;;;9.48;4.75;;;11.70;73.40;;;;;;5024185;28;20366;-65
2022/10/20 01:20:18;;;;;;;9.70;4.93;;;11.80;73.30;;;;;;5017499;28;20116;-65
2022/10/20 01:22:46;;;;;;;7.68;4.32;;;11.80;73.30;;;;;;5026880;28;20033;-65
2022/10/20 01:25:25;;;;;;;8.38;4.40;;;11.70;73.40;;;;;;5022267;28;20398;-65
2022/10/20 01:28:05;;;;;;;9.48;4.65;;;11.70;73.40;;;;;;5028109;28;20032;-65
2022/10/20 01:30:35;;;;;;;10.75;4.80;;;11.70;73.40;;;;;;5024784;28;20120;-65
2022/10/20 01:33:06;;;;;;;9.10;5.07;;;11.70;73.50;;;;;;5036435;28;20065;-65
2022/10/20 01:35:46;;;;;;;8.73;4.57;;;11.70;73.50;;;;;;5018749;28;20355;-65
2022/10/20 01:38:22;;;;;;;9.88;4.90;;;11.70;73.60;;;;;;5022126;28;20038;-65
2022/10/20 01:41:00;;;;;;;8.82;4.93;;;11.70;73.60;;;;;;5010421;28;20053;-65
2022/10/20 01:43:30;;;;;;;9.07;4.60;;;11.70;73.60;;;;;;5030333;28;20033;-65
2022/10/20 01:45:57;;;;;;;7.97;4.68;;;11.70;73.60;;;;;;5020268;28;20122;-65
2022/10/20 01:48:27;;;;;;;9.45;5.00;;;11.70;73.70;;;;;;5030804;28;20026;-65
2022/10/20 01:50:53;;;;;;;9.02;5.65;;;11.70;73.70;;;;;;5029002;28;20091;-65
2022/10/20 01:53:19;;;;;;;9.02;5.32;;;11.70;73.70;;;;;;5022225;28;20044;-65
2022/10/20 01:55:48;;;;;;;8.32;4.63;;;11.60;73.60;;;;;;5016441;28;20026;-65
2022/10/20 01:59:01;;;;;;;9.48;4.65;;;11.60;73.70;;;;;;5011700;28;20465;-65
2022/10/20 02:01:47;;;;;;;8.40;4.65;;;11.60;73.70;;;;;;5014980;28;20461;-65
2022/10/20 02:04:14;;;;;;;10.27;5.05;;;11.60;73.70;;;;;;5030173;28;20117;-65
2022/10/20 02:07:06;;;;;;;11.27;5.28;;;11.60;73.80;;;;;;5027619;28;20172;-65
2022/10/20 02:09:38;;;;;;;7.65;4.60;;;11.60;73.80;;;;;;5006396;28;21722;-65
2022/10/20 02:12:11;;;;;;;9.20;4.82;;;11.60;73.90;;;;;;5030867;28;20085;-65
2022/10/20 02:14:37;;;;;;;12.10;5.35;;;11.60;74.00;;;;;;5019377;28;20030;-65
2022/10/20 02:17:09;;;;;;;9.57;6.00;;;11.60;74.00;;;;;;5029241;28;20131;-65
2022/10/20 02:19:38;;;;;;;;;;;11.50;74.00;;;;;;5033139;28;20030;-65
2022/10/20 02:22:05;;;;;;;11.18;5.50;;;11.50;73.90;;;;;;5027760;28;19974;-65
2022/10/20 02:24:34;;;;;;;11.73;5.53;;;11.60;74.00;;;;;;5031145;28;20105;-65
2022/10/20 02:27:07;;;;;;;9.57;4.75;;;11.50;74.00;;;;;;5025100;28;20465;-65
2022/10/20 02:29:38;;;;;;;9.45;4.90;;;11.50;74.00;;;;;;5036417;28;20026;-65
2022/10/20 02:32:06;;;;;;;9.73;4.93;;;11.50;74.10;;;;;;5017349;28;20029;-65
2022/10/20 02:34:31;;;;;;;8.30;4.68;;;11.50;74.10;;;;;;5029439;28;20354;-65
2022/10/20 02:36:58;;;;;;;8.43;4.90;;;11.50;74.10;;;;;;5024335;28;20021;-65
2022/10/20 02:39:25;;;;;;;8.55;4.85;;;11.50;74.10;;;;;;5030486;28;20142;-65
2022/10/20 02:41:51;;;;;;;10.38;5.35;;;11.50;74.20;;;;;;5025087;28;20033;-65
2022/10/20 02:44:17;;;;;;;8.85;4.75;;;11.50;74.30;;;;;;5028824;28;20331;-65
2022/10/20 02:46:42;;;;;;;8.23;4.93;;;11.50;74.40;;;;;;5028163;28;20486;-65
2022/10/20 02:49:08;;;;;;;9.73;4.82;;;11.40;74.30;;;;;;5035150;28;20109;-65
2022/10/20 02:51:34;;;;;;;9.63;5.13;;;11.40;74.30;;;;;;5017501;28;20358;-66
2022/10/20 02:53:59;;;;;;;10.95;5.05;;;11.40;74.40;;;;;;5034452;28;20048;-66
2022/10/20 02:56:25;;;;;;;9.80;5.28;;;11.40;74.40;;;;;;5015561;28;20410;-65
2022/10/20 02:58:51;;;;;;;10.85;5.82;;;11.40;74.50;;;;;;5025833;28;20430;-65
2022/10/20 03:01:16;;;;;;;10.80;6.20;;;11.40;74.50;;;;;;5024445;28;20437;-65
2022/10/20 03:03:42;;;;;;;8.48;5.03;;;11.40;74.50;;;;;;5032459;28;20032;-65
2022/10/20 03:06:13;;;;;;;9.73;5.22;;;11.40;74.50;;;;;;5023373;28;20034;-65
2022/10/20 03:08:40;;;;;;;8.32;4.68;;;11.40;74.50;;;;;;5032033;28;20112;-65
2022/10/20 03:11:05;;;;;;;7.50;4.43;;;11.40;74.60;;;;;;5023241;28;20060;-65
2022/10/20 03:13:31;;;;;;;10.52;5.13;;;11.40;74.60;;;;;;5044664;28;20037;-65
2022/10/20 03:15:58;;;;;;;7.80;4.78;;;11.40;74.60;;;;;;5014657;28;20045;-65
2022/10/20 03:18:23;;;;;;;7.75;4.72;;;11.40;74.60;;;;;;5016259;28;20485;-65
2022/10/20 03:20:51;;;;;;;10.98;4.95;;;11.40;74.60;;;;;;5022441;28;20466;-65
2022/10/20 03:23:17;;;;;;;8.52;4.80;;;11.40;74.70;;;;;;5020619;28;20030;-65
2022/10/20 03:25:43;;;;;;;10.05;4.38;;;11.40;74.70;;;;;;5024040;28;20022;-65
2022/10/20 03:28:09;;;;;;;9.15;4.50;;;11.30;74.70;;;;;;5046952;28;20034;-65
2022/10/20 03:30:34;;;;;;;9.50;5.05;;;11.30;74.70;;;;;;5010984;28;20432;-65
2022/10/20 03:33:00;;;;;;;10.90;5.10;;;11.30;74.70;;;;;;4985855;28;20111;-65
2022/10/20 03:35:25;;;;;;;8.57;4.63;;;11.30;74.80;;;;;;5003363;28;20125;-65
2022/10/20 03:37:51;;;;;;;10.93;4.90;;;11.30;74.80;;;;;;4996822;28;20535;-65
2022/10/20 03:40:17;;;;;;;8.43;4.65;;;11.30;74.90;;;;;;4992821;28;20041;-65
2022/10/20 03:42:42;;;;;;;8.55;4.65;;;11.30;74.90;;;;;;4997168;28;20045;-65
2022/10/20 03:45:08;;;;;;;9.15;5.22;;;11.20;74.90;;;;;;4999364;28;20030;-65
2022/10/20 03:47:34;;;;;;;9.32;4.85;;;11.20;75.10;;;;;;5000397;28;20026;-65
2022/10/20 03:50:00;;;;;;;10.00;4.47;;;11.20;75.10;;;;;;4993534;28;20034;-65
2022/10/20 03:52:26;;;;;;;10.07;4.90;;;11.30;75.10;;;;;;5000163;28;20049;-65
2022/10/20 03:54:51;;;;;;;7.65;4.25;;;11.30;75.10;;;;;;4994125;28;20073;-65
2022/10/20 03:57:19;;;;;;;8.55;4.90;;;11.20;75.00;;;;;;5003645;28;20030;-65
2022/10/20 03:59:44;;;;;;;8.13;4.70;;;11.30;75.10;;;;;;5000765;28;20026;-65
2022/10/20 04:02:32;;;;;;;9.23;4.78;;;11.30;75.10;;;;;;5002959;28;20044;-65
2022/10/20 04:04:58;;;;;;;9.05;5.00;;;11.30;75.10;;;;;;4996346;28;20041;-65
2022/10/20 04:07:23;;;;;;;9.43;4.85;;;11.30;75.10;;;;;;5012818;28;20026;-65
2022/10/20 04:09:49;;;;;;;8.32;4.70;;;11.20;75.10;;;;;;5013952;28;20125;-65
2022/10/20 04:12:14;;;;;;;9.20;4.88;;;11.20;75.10;;;;;;5012697;28;20036;-65
2022/10/20 04:14:40;;;;;;;7.82;4.30;;;11.20;75.20;;;;;;5006173;28;20030;-65
2022/10/20 04:17:06;;;;;;;9.27;4.70;;;11.30;75.30;;;;;;4996861;28;20382;-65
2022/10/20 04:19:31;;;;;;;9.18;4.72;;;11.20;75.40;;;;;;5015438;28;20100;-65
2022/10/20 04:21:57;;;;;;;9.65;4.57;;;11.20;75.30;;;;;;4995742;28;20050;-65
2022/10/20 04:24:22;;;;;;;9.20;4.82;;;11.20;75.30;;;;;;4997399;28;20031;-65
2022/10/20 04:26:48;;;;;;;11.15;5.05;;;11.20;75.40;;;;;;5000405;28;20027;-65
2022/10/20 04:29:14;;;;;;;9.23;5.05;;;11.20;75.40;;;;;;5000920;28;20037;-65
2022/10/20 04:31:39;;;;;;;8.13;4.80;;;11.20;75.40;;;;;;4998918;28;20014;-65
2022/10/20 04:34:05;;;;;;;8.20;4.70;;;11.20;75.40;;;;;;5004442;28;20112;-66
2022/10/20 04:36:30;;;;;;;8.57;5.00;;;11.20;75.40;;;;;;4997231;28;20022;-66
2022/10/20 04:38:56;;;;;;;9.38;4.95;;;11.20;75.40;;;;;;5003341;28;20014;-65
2022/10/20 04:41:22;;;;;;;9.48;5.55;;;11.20;75.50;;;;;;5011021;28;20360;-65
2022/10/20 04:43:51;;;;;;;9.90;5.30;;;11.20;75.50;;;;;;5028546;28;20046;-66
2022/10/20 04:46:18;;;;;;;8.88;5.15;;;11.20;75.60;;;;;;5013147;28;20034;-66
2022/10/20 04:48:44;;;;;;;10.48;5.45;;;11.20;75.60;;;;;;5025668;28;20025;-66
2022/10/20 04:51:13;;;;;;;11.07;5.38;;;11.20;75.60;;;;;;5027948;28;20049;-66
2022/10/20 04:53:39;;;;;;;9.35;5.13;;;11.20;75.60;;;;;;5012224;28;20127;-66
2022/10/20 04:56:06;;;;;;;9.60;5.63;;;11.20;75.60;;;;;;5014410;28;20072;-66
2022/10/20 04:58:33;;;;;;;12.40;5.70;;;11.20;75.60;;;;;;5008813;28;20033;-66
2022/10/20 05:01:04;;;;;;;9.02;4.90;;;11.20;75.60;;;;;;5025130;28;20069;-67
2022/10/20 05:03:30;;;;;;;10.15;5.57;;;11.20;75.60;;;;;;5010706;28;20069;-65
2022/10/20 05:06:08;;;;;;;10.40;5.93;;;11.20;75.60;;;;;;5010565;28;20061;-65
2022/10/20 05:08:34;;;;;;;10.20;5.72;;;11.30;75.60;;;;;;5009463;28;20041;-65
2022/10/20 05:11:00;;;;;;;11.20;5.50;;;11.20;75.60;;;;;;5010985;28;20034;-65
2022/10/20 05:13:25;;;;;;;9.13;5.15;;;11.20;75.70;;;;;;5012403;28;20034;-66
2022/10/20 05:15:52;;;;;;;10.35;5.60;;;11.20;75.70;;;;;;5016759;28;20411;-66
2022/10/20 05:18:18;;;;;;;9.25;5.72;;;11.20;75.80;;;;;;5013346;28;20038;-65
2022/10/20 05:20:43;;;;;;;10.45;6.07;;;11.20;75.80;;;;;;5012861;28;20030;-65
2022/10/20 05:23:09;;;;;;;9.02;5.72;;;11.20;75.90;;;;;;5030516;28;20057;-66
2022/10/20 05:25:38;;;;;;;11.25;5.82;;;11.30;76.00;;;;;;5019245;28;20021;-65
2022/10/20 05:28:04;;;;;;;8.75;5.53;;;11.30;76.00;;;;;;5028534;28;20057;-66
2022/10/20 05:30:30;;;;;;;11.10;5.55;;;11.30;76.00;;;;;;5036480;28;20029;-66
2022/10/20 05:32:55;;;;;;;10.75;5.90;;;11.30;75.90;;;;;;5036991;28;20387;-66
2022/10/20 05:35:21;;;;;;;11.68;6.82;;;11.30;75.90;;;;;;5037493;28;20212;-66
2022/10/20 05:37:47;;;;;;;11.38;5.93;;;11.30;76.00;;;;;;5038010;28;20036;-67
2022/10/20 05:40:12;;;;;;;8.95;5.70;;;11.30;76.00;;;;;;5021444;28;20030;-66
2022/10/20 05:42:38;;;;;;;10.70;6.60;;;11.30;76.00;;;;;;5037841;28;20083;-67
2022/10/20 05:45:05;;;;;;;11.30;6.57;;;11.30;76.10;;;;;;5035447;28;20029;-68
2022/10/20 05:47:31;;;;;;;9.50;6.05;;;11.30;76.10;;;;;;5006890;28;20037;-67
2022/10/20 05:49:56;;;;;;;10.25;5.53;;;11.40;76.20;;;;;;5018193;28;20025;-67
2022/10/20 05:52:22;;;;;;;9.60;5.90;;;11.40;76.10;;;;;;5021915;28;20458;-67
2022/10/20 05:54:48;;;;;;;10.43;5.72;;;11.40;76.00;;;;;;5033081;28;20049;-67
2022/10/20 05:57:13;;;;;;;8.82;5.57;;;11.40;76.00;;;;;;5026765;28;20116;-68
2022/10/20 05:59:39;;;;;;;10.20;6.00;;;11.50;76.10;;;;;;5021943;28;20029;-66
2022/10/20 06:02:05;;;;;;;9.02;5.50;;;11.50;76.00;;;;;;5007847;28;20159;-68
2022/10/20 06:04:30;;;;;;;10.13;6.05;;;11.50;75.90;;;;;;5032135;28;20034;-67
2022/10/20 06:06:57;;;;;;;9.80;6.15;;;11.50;75.90;;;;;;5024767;28;20052;-67
2022/10/20 06:09:23;;;;;;;13.90;6.32;;;11.50;76.00;;;;;;5027643;28;20029;-67
2022/10/20 06:11:50;;;;;;;9.50;5.60;;;11.50;76.10;;;;;;5018911;28;20018;-67
2022/10/20 06:14:16;;;;;;;10.18;5.88;;;11.50;76.10;;;;;;5023475;28;20091;-68
2022/10/20 06:16:42;;;;;;;11.05;6.80;;;11.50;76.10;;;;;;5017765;28;20057;-67
2022/10/20 06:19:09;;;;;;;10.10;6.55;;;11.50;76.10;;;;;;5031333;28;20061;-67
2022/10/20 06:21:36;;;;;;;11.68;6.68;;;11.50;76.10;;;;;;5022614;28;20087;-67
2022/10/20 06:24:03;;;;;;;9.35;5.95;;;11.40;76.10;;;;;;5019178;28;20021;-67
2022/10/20 06:26:31;;;;;;;13.10;7.20;;;11.50;76.20;;;;;;5022818;28;20025;-67
2022/10/20 06:28:58;;;;;;;11.18;6.70;;;11.50;76.30;;;;;;5024094;28;20040;-67
2022/10/20 06:31:27;;;;;;;8.95;5.35;;;11.50;76.30;;;;;;5017975;28;20029;-68
2022/10/20 06:33:53;;;;;;;11.57;6.85;;;11.50;76.30;;;;;;5015574;28;20030;-68
2022/10/20 06:36:20;;;;;;;10.20;6.45;;;11.50;76.30;;;;;;5019360;28;20393;-68
2022/10/20 06:38:46;;;;;;;11.57;6.78;;;11.50;76.40;;;;;;5018997;28;20034;-67
2022/10/20 06:41:15;;;;;;;11.90;6.70;;;11.50;76.40;;;;;;5025365;28;20032;-67
2022/10/20 06:43:42;;;;;;;12.15;6.72;;;11.50;76.30;;;;;;5021830;28;20075;-67
2022/10/20 06:46:12;;;;;;;11.18;6.10;;;11.60;76.40;;;;;;5020656;28;20021;-67
2022/10/20 06:48:37;;;;;;;11.75;6.53;;;11.60;76.40;;;;;;5024768;28;20128;-67
2022/10/20 06:51:10;;;;;;;9.93;6.20;;;11.60;76.40;;;;;;5035088;28;20075;-67
2022/10/20 06:53:36;;;;;;;10.82;7.15;;;11.60;76.50;;;;;;5022198;28;20034;-67
2022/10/20 06:56:07;;;;;;;10.23;6.63;;;11.60;76.40;;;;;;5009363;28;20034;-67
2022/10/20 06:58:34;;;;;;;11.50;6.72;;;11.60;76.40;;;;;;5016209;28;20038;-70
2022/10/20 07:01:10;;;;;;;12.57;6.68;;;11.60;76.40;;;;;;5015607;28;20034;-71
2022/10/20 07:03:37;;;;;;;14.00;7.35;;;11.60;76.40;;;;;;5006550;28;20026;-71
2022/10/20 07:06:04;;;;;;;17.85;7.50;;;11.60;76.40;;;;;;5014842;28;20039;-71
2022/10/20 07:08:32;;;;;;;11.38;7.05;;;11.70;76.40;;;;;;5010861;28;20073;-71
2022/10/20 07:11:03;;;;;;;16.55;6.95;;;11.70;76.40;;;;;;5002626;28;20187;-71
2022/10/20 07:13:29;;;;;;;13.60;6.53;;;11.70;76.40;;;;;;5012105;28;20370;-70
2022/10/20 07:15:56;;;;;;;10.95;7.43;;;11.70;76.40;;;;;;5026714;28;20046;-71
2022/10/20 07:18:22;;;;;;;12.05;6.65;;;11.80;76.30;;;;;;4998922;28;20038;-72
2022/10/20 07:20:48;;;;;;;11.15;6.55;;;11.80;76.20;;;;;;5006328;28;20123;-71
2022/10/20 07:23:14;;;;;;;13.27;7.18;;;11.80;76.20;;;;;;5013010;28;20052;-71
2022/10/20 07:25:40;;;;;;;11.07;6.82;;;11.80;76.20;;;;;;5001762;28;20459;-71
2022/10/20 07:28:05;;;;;;;11.13;6.95;;;11.90;76.20;;;;;;4999385;28;20100;-72
2022/10/20 07:30:31;;;;;;;13.68;8.00;;;11.90;76.20;;;;;;5000046;28;20034;-71
2022/10/20 07:32:57;;;;;;;11.07;6.75;;;11.90;76.20;;;;;;5003112;28;20034;-71
2022/10/20 07:35:22;;;;;;;10.70;7.03;;;11.90;76.20;;;;;;5002725;28;20030;-71
2022/10/20 07:37:49;;;;;;;13.65;6.93;;;11.90;76.20;;;;;;5003263;28;20045;-71
2022/10/20 07:40:14;;;;;;;11.45;6.88;;;11.90;76.20;;;;;;5007788;28;20027;-71
2022/10/20 07:42:40;;;;;;;11.95;6.65;;;11.90;76.20;;;;;;4999544;28;20030;-71
2022/10/20 07:45:06;;;;;;;13.52;7.00;;;12.00;76.30;;;;;;5000444;28;20041;-71
2022/10/20 07:47:32;;;;;;;12.65;8.00;;;12.00;76.30;;;;;;4996638;28;20022;-71
2022/10/20 07:49:58;;;;;;;12.93;7.13;;;12.00;76.20;;;;;;5009794;28;20113;-71
2022/10/20 07:52:23;;;;;;;13.35;7.25;;;12.00;76.20;;;;;;4995018;28;20073;-71
2022/10/20 07:54:49;;;;;;;11.18;6.80;;;12.10;76.20;;;;;;5021462;28;20436;-71
2022/10/20 07:57:14;;;;;;;14.32;8.27;;;12.10;76.10;;;;;;4995214;28;20023;-71
2022/10/20 07:59:40;;;;;;;13.13;7.45;;;12.10;76.10;;;;;;5013053;28;20117;-71
2022/10/20 08:02:06;;;;;;;11.02;6.75;;;12.10;76.10;;;;;;4996774;28;20042;-71
2022/10/20 08:04:31;;;;;;;12.77;7.75;;;12.20;76.20;;;;;;5000859;28;20030;-71
2022/10/20 08:06:58;;;;;;;13.23;7.55;;;12.20;76.10;;;;;;5001598;28;20022;-71
2022/10/20 08:09:24;;;;;;;11.70;7.72;;;12.20;76.10;;;;;;4997923;28;20018;-71
2022/10/20 08:11:50;;;;;;;11.75;7.60;;;12.20;76.20;;;;;;5014054;28;20408;-71
2022/10/20 08:14:16;;;;;;;12.27;7.15;;;12.30;76.20;;;;;;5014786;28;20470;-71
2022/10/20 08:16:41;;;;;;;11.57;6.47;;;12.30;76.20;;;;;;5014592;28;20077;-71
2022/10/20 08:19:07;;;;;;;12.02;7.78;;;12.30;76.20;;;;;;5015861;28;20108;-71
2022/10/20 08:21:33;;;;;;;11.65;7.07;;;12.30;76.20;;;;;;5018344;28;20056;-71
2022/10/20 08:24:00;;;;;;;12.88;7.90;;;12.30;76.30;;;;;;5021902;28;20109;-71
2022/10/20 08:26:26;;;;;;;11.60;7.68;;;12.30;76.30;;;;;;5018359;28;20026;-71
2022/10/20 08:28:53;;;;;;;12.07;7.25;;;12.40;76.30;;;;;;5033612;28;20370;-71
2022/10/20 08:31:20;;;;;;;10.57;6.50;;;12.40;76.20;;;;;;5019922;28;20038;-71
2022/10/20 08:33:46;;;;;;;14.07;7.50;;;12.50;76.20;;;;;;5033749;28;20091;-71
2022/10/20 08:36:14;;;;;;;13.65;7.68;;;12.50;76.20;;;;;;5037969;28;20034;-71
2022/10/20 08:38:40;;;;;;;11.55;7.32;;;12.60;76.10;;;;;;5025642;28;20442;-71
2022/10/20 08:41:23;;;;;;;12.30;7.60;;;12.70;76.10;;;;;;5023776;28;20091;-71
2022/10/20 08:43:52;;;;;;;12.32;7.38;;;12.80;76.00;;;;;;5020641;28;20136;-71
2022/10/20 08:46:21;;;;;;;12.40;7.72;;;12.90;75.80;;;;;;5014031;28;20087;-71
2022/10/20 08:48:48;;;;;;;12.25;8.05;;;12.90;75.70;;;;;;5033244;28;20408;-71
2022/10/20 08:51:22;;;;;;;14.38;7.03;;;13.00;75.60;;;;;;5031203;28;20517;-71
2022/10/20 08:53:51;;;;;;;13.55;7.82;;;13.20;75.60;;;;;;5013932;28;20116;-71
2022/10/20 08:56:21;;;;;;;13.13;8.05;;;13.20;75.50;;;;;;5005732;28;20026;-71
2022/10/20 08:58:47;;;;;;;12.60;7.60;;;13.30;75.40;;;;;;5033496;28;20037;-71
2022/10/20 09:01:24;;;;;;;10.88;7.00;;;13.40;75.30;;;;;;5030569;28;20026;-71
2022/10/20 09:03:55;;;;;;;13.43;7.70;;;13.50;75.30;;;;;;5027891;28;20022;-71
2022/10/20 09:06:21;;;;;;;12.98;7.32;;;13.50;75.20;;;;;;5017963;28;20029;-71
2022/10/20 09:08:47;;;;;;;11.75;7.28;;;13.60;75.20;;;;;;5018413;28;20359;-71
2022/10/20 09:11:21;;;;;;;13.90;8.52;;;13.60;75.10;;;;;;5002080;28;20112;-71
2022/10/20 09:13:47;;;;;;;10.30;7.07;;;13.80;75.20;;;;;;5004483;28;20030;-71
2022/10/20 09:16:28;;;;;;;11.63;7.40;;;13.80;75.00;;;;;;5011840;28;20033;-70
2022/10/20 09:18:57;;;;;;;12.32;7.47;;;13.90;75.00;;;;;;4997633;28;20030;-70
2022/10/20 09:21:23;;;;;;;12.48;7.38;;;13.90;74.90;;;;;;5009074;28;20030;-70
2022/10/20 09:23:52;;;;;;;13.35;7.70;;;14.00;75.70;;;;;;4998192;28;20026;-70
2022/10/20 09:26:21;;;;;;;13.63;8.60;;;14.00;75.00;;;;;;5012144;28;20034;-70
2022/10/20 09:28:50;;;;;;;12.85;7.70;;;14.10;75.00;;;;;;5012005;28;20443;-71
2022/10/20 09:31:37;;;;;;;12.43;7.35;;;14.10;75.00;;;;;;5008315;28;20034;-70
2022/10/20 09:34:26;;;;;;;13.10;7.72;;;14.10;75.10;;;;;;5000152;28;20091;-70
2022/10/20 09:37:07;;;;;;;12.50;7.50;;;14.10;75.20;;;;;;5000433;28;20527;-70
2022/10/20 09:39:46;;;;;;;11.85;6.93;;;14.10;75.30;;;;;;4998660;28;20366;-70
2022/10/20 09:42:23;;;;;;;15.05;7.07;;;14.10;75.40;;;;;;5000542;28;20042;-70
2022/10/20 09:44:53;;;;;;;10.80;7.40;;;14.10;75.60;;;;;;5002588;28;20032;-70
2022/10/20 09:47:19;;;;;;;12.32;8.02;;;14.10;75.90;;;;;;5004563;28;20166;-70
2022/10/20 09:49:46;;;;;;;14.45;8.52;;;14.10;75.70;;;;;;5005910;28;20057;-70
2022/10/20 09:52:23;;;;;;;11.68;7.88;;;14.10;75.80;;;;;;5014493;28;20062;-70
2022/10/20 09:54:50;;;;;;;14.32;8.43;;;14.10;75.90;;;;;;5002475;28;20022;-70
2022/10/20 09:57:19;;;;;;;12.63;8.43;;;14.10;76.00;;;;;;5011714;28;20434;-70
2022/10/20 09:59:47;;;;;;;14.13;9.32;;;14.20;76.10;;;;;;5006430;28;20030;-70
2022/10/20 10:02:16;;;;;;;16.67;9.13;;;14.10;76.70;;;;;;5017452;28;20030;-70
2022/10/20 10:04:44;;;;;;;14.07;8.55;;;14.20;76.20;;;;;;4996922;28;20363;-71
2022/10/20 10:07:25;;;;;;;14.88;9.02;;;14.20;76.20;;;;;;5016424;28;20034;-70
2022/10/20 10:10:18;;;;;;;15.43;8.60;;;14.20;76.30;;;;;;5012394;28;20027;-70
2022/10/20 10:12:54;;;;;;;12.07;8.90;;;14.20;76.40;;;;;;5014749;28;20048;-70
2022/10/20 10:15:33;;;;;;;12.95;7.93;;;14.20;76.50;;;;;;5027498;28;20034;-70
2022/10/20 10:18:10;;;;;;;12.05;7.88;;;14.20;76.60;;;;;;5023077;28;20379;-70
2022/10/20 10:20:38;;;;;;;13.27;8.57;;;14.20;76.60;;;;;;5014265;28;20040;-70
2022/10/20 10:23:25;;;;;;;14.48;9.25;;;14.20;76.70;;;;;;5019487;28;20073;-71
2022/10/20 10:25:51;;;;;;;11.98;7.38;;;14.30;76.90;;;;;;5017671;28;20030;-71
2022/10/20 10:28:30;;;;;;;14.15;8.43;;;14.20;76.80;;;;;;5038518;28;20041;-72
2022/10/20 10:31:19;;;;;;;13.15;7.72;;;14.30;77.00;;;;;;5019303;28;20041;-71
2022/10/20 10:33:46;;;;;;;15.32;9.20;;;14.30;77.00;;;;;;5029887;28;20033;-72
2022/10/20 10:36:31;;;;;;;15.38;8.80;;;14.30;77.10;;;;;;5027429;28;20041;-71
2022/10/20 10:38:58;;;;;;;13.95;8.98;;;14.30;77.20;;;;;;5023797;28;20332;-71
2022/10/20 10:41:54;;;;;;;14.13;9.98;;;14.30;77.30;;;;;;5017530;28;20045;-71
2022/10/20 10:45:06;;;;;;;16.73;9.90;;;14.30;77.50;;;;;;5019270;28;20087;-71
2022/10/20 10:47:53;;;;;;;14.35;9.50;;;14.30;77.60;;;;;;5022694;28;20026;-71
2022/10/20 10:50:26;;;;;;;13.55;9.25;;;14.30;77.70;;;;;;5023666;28;20033;-71
2022/10/20 10:53:07;;;;;;;14.07;9.80;;;14.30;78.00;;;;;;5022386;28;20037;-71
2022/10/20 10:55:54;;;;;;;14.43;9.65;;;14.40;78.10;;;;;;5030448;28;20044;-72
2022/10/20 10:58:45;;;;;;;15.68;9.40;;;14.40;78.20;;;;;;5011280;28;20179;-71
2022/10/20 11:01:30;;;;;;;;;;;14.40;78.30;;;;;;5025813;28;20049;-71
2022/10/20 11:04:26;;;;;;;13.43;7.28;;;14.40;78.10;;;;;;5010383;28;19960;-70
2022/10/20 11:07:07;;;;;;;12.52;7.90;;;14.40;78.20;;;;;;5008420;28;20026;-70
2022/10/20 11:10:09;;;;;;;12.20;8.27;;;14.50;78.50;;;;;;5010994;28;20096;-70
2022/10/20 11:13:14;;;;;;;12.27;8.00;;;14.50;78.70;;;;;;5009095;28;20042;-71
2022/10/20 11:15:42;;;;;;;11.15;7.05;;;14.50;78.80;;;;;;5005637;28;20056;-71
2022/10/20 11:18:23;;;;;;;12.93;8.25;;;14.50;79.00;;;;;;5010230;28;20048;-70
2022/10/20 11:21:16;;;;;;;12.83;8.07;;;14.60;79.00;;;;;;5006640;28;20129;-70
2022/10/20 11:24:09;;;;;;;12.35;7.57;;;14.60;79.30;;;;;;4999672;28;20415;-70
2022/10/20 11:26:49;;;;;;;12.32;8.35;;;14.60;79.30;;;;;;5005203;28;20037;-70
2022/10/20 11:29:32;;;;;;;12.32;7.20;;;14.60;79.50;;;;;;5006193;28;20030;-70
2022/10/20 11:31:58;;;;;;;13.52;7.90;;;14.60;79.50;;;;;;5007100;28;20034;-70
2022/10/20 11:34:36;;;;;;;13.73;8.88;;;14.60;79.50;;;;;;5006776;28;20088;-70
2022/10/20 11:37:06;;;;;;;14.48;8.05;;;14.60;79.70;;;;;;5011003;28;20422;-70
2022/10/20 11:39:44;;;;;;;14.25;7.95;;;14.70;79.90;;;;;;5011513;28;20340;-70
2022/10/20 11:42:24;;;;;;;12.73;7.30;;;14.70;80.00;;;;;;5010996;28;20490;-70
2022/10/20 11:44:52;;;;;;;12.73;8.00;;;14.70;80.10;;;;;;5006926;28;20015;-71
2022/10/20 11:47:40;;;;;;;14.48;8.82;;;14.70;80.20;;;;;;5009106;28;20041;-71
2022/10/20 11:50:09;;;;;;;14.85;8.85;;;14.70;80.30;;;;;;4994054;28;20030;-70
2022/10/20 11:52:38;;;;;;;13.73;9.02;;;14.70;80.40;;;;;;5005487;28;20466;-70
2022/10/20 11:55:57;;;;;;;12.70;8.15;;;14.70;80.50;;;;;;5007271;28;20041;-70
2022/10/20 11:58:36;;;;;;;13.15;8.43;;;14.70;80.70;;;;;;4976095;28;20035;-70
2022/10/20 12:01:23;;;;;;;15.00;8.93;;;14.60;80.80;;;;;;4970312;28;20034;-70
2022/10/20 12:04:40;;;;;;;12.75;9.00;;;14.60;81.00;;;;;;4975949;28;20026;-71
2022/10/20 12:07:30;;;;;;;12.50;7.88;;;14.60;81.10;;;;;;4974709;28;20054;-71
2022/10/20 12:10:16;;;;;;;13.43;8.32;;;14.60;81.30;;;;;;4974940;28;20073;-70
2022/10/20 12:12:50;;;;;;;15.23;7.97;;;14.60;81.40;;;;;;4963428;28;20070;-70
2022/10/20 12:15:29;;;;;;;15.77;8.98;;;14.60;81.40;;;;;;4968070;28;20050;-70
2022/10/20 12:18:06;;;;;;;16.77;9.23;;;14.60;81.70;;;;;;4975346;28;20046;-70
2022/10/20 12:20:37;;;;;;;14.13;8.82;;;14.60;81.70;;;;;;4975202;28;20468;-70
2022/10/20 12:23:03;;;;;;;12.73;8.73;;;14.60;81.90;;;;;;4969633;28;20039;-70
2022/10/20 12:25:29;;;;;;;16.15;10.18;;;14.60;81.90;;;;;;4975411;28;20051;-70
2022/10/20 12:28:18;;;;;;;14.45;9.30;;;14.60;82.00;;;;;;4949554;28;20090;-71
2022/10/20 12:30:52;;;;;;;18.23;10.18;;;14.60;82.20;;;;;;4973397;28;20568;-70
2022/10/20 12:33:19;;;;;;;16.90;10.60;;;14.60;82.30;;;;;;5006385;28;20030;-71
2022/10/20 12:36:17;;;;;;;17.95;10.80;;;14.60;82.40;;;;;;5012749;28;20033;-71
2022/10/20 12:38:50;;;;;;;16.08;10.65;;;14.60;82.70;;;;;;5015425;28;20054;-70
2022/10/20 12:41:33;;;;;;;17.67;9.98;;;14.60;82.70;;;;;;5017459;28;20383;-70
2022/10/20 12:44:01;;;;;;;19.48;10.32;;;14.60;82.80;;;;;;5016592;28;20057;-70
2022/10/20 12:46:30;;;;;;;16.88;11.82;;;14.60;82.80;;;;;;5016784;28;20113;-70
2022/10/20 12:49:00;;;;;;;16.35;11.02;;;14.60;82.90;;;;;;5018920;28;20079;-70
2022/10/20 12:51:37;;;;;;;16.27;10.53;;;14.60;83.00;;;;;;5023248;28;20033;-70
2022/10/20 12:54:23;;;;;;;15.18;11.10;;;14.70;83.20;;;;;;5023232;28;20484;-70
2022/10/20 12:56:51;;;;;;;14.40;10.05;;;14.70;83.20;;;;;;5018379;28;20352;-70
2022/10/20 12:59:28;;;;;;;16.15;10.98;;;14.70;83.10;;;;;;5005390;28;20030;-70